Time;durP1;ratioP1;P1;durP2;ratioP2;P2;SDS_P1;SDS_P2;PMS_P1;PMS_P2;Temp;Humidity;BMP_temperature;BMP_pressure;BME280_temperature;BME280_humidity;BME280_pressure;Samples;Min_cycle;Max_cycle;Signal;HPM_P1;HPM_P2
2021/09/22 00:02:12;;;;;;;36.47;22.30;;;;;;;;;;5068222;28;20024;-72
2021/09/22 00:04:38;;;;;;;32.20;21.88;;;;;;;;;;5071252;28;20017;-72
2021/09/22 00:07:04;;;;;;;34.80;22.58;;;;;;;;;;5063406;28;20025;-72
2021/09/22 00:09:30;;;;;;;33.10;23.08;;;;;;;;;;5071258;28;20111;-72
2021/09/22 00:11:56;;;;;;;40.15;23.05;;;;;;;;;;5066124;28;20031;-72
2021/09/22 00:14:22;;;;;;;37.55;22.77;;;;;;;;;;5063558;28;20033;-72
2021/09/22 00:16:49;;;;;;;35.90;23.42;;;;;;;;;;5071367;28;20035;-72
2021/09/22 00:19:15;;;;;;;34.50;22.67;;;;;;;;;;5068586;28;20028;-72
2021/09/22 00:21:41;;;;;;;32.63;21.20;;;;;;;;;;5066446;28;20033;-72
2021/09/22 00:24:07;;;;;;;35.72;22.25;;;;;;;;;;5071216;28;20020;-72
2021/09/22 00:26:33;;;;;;;33.75;22.17;;;;;;;;;;5071396;28;20031;-72
2021/09/22 00:28:59;;;;;;;35.22;21.73;;;;;;;;;;5052557;28;20033;-72
2021/09/22 00:31:25;;;;;;;35.92;22.70;;;;;;;;;;5068955;28;20043;-72
2021/09/22 00:33:51;;;;;;;35.38;22.75;;;;;;;;;;5063865;28;20394;-72
2021/09/22 00:36:17;;;;;;;33.72;21.73;;;;;;;;;;5070334;28;20579;-72
2021/09/22 00:38:44;;;;;;;35.17;21.55;;;;;;;;;;5068417;28;20041;-71
2021/09/22 00:41:10;;;;;;;31.67;20.13;;;;;;;;;;5063558;28;20051;-72
2021/09/22 00:43:36;;;;;;;31.27;21.02;;;;;;;;;;5063807;28;20021;-72
2021/09/22 00:46:05;;;;;;;31.60;21.48;;;;;;;;;;5059621;28;20036;-72
2021/09/22 00:48:32;;;;;;;38.33;22.02;;;;;;;;;;5066814;28;20029;-72
2021/09/22 00:50:59;;;;;;;35.33;21.58;;;;;;;;;;5063488;28;20083;-72
2021/09/22 00:53:25;;;;;;;35.13;20.85;;;;;;;;;;5067780;28;20498;-72
2021/09/22 00:55:51;;;;;;;37.42;22.70;;;;;;;;;;5068968;28;20025;-72
2021/09/22 00:58:18;;;;;;;33.47;21.33;;;;;;;;;;5068366;28;20056;-71
2021/09/22 01:00:44;;;;;;;34.08;21.58;;;;;;;;;;5067990;28;20028;-72
2021/09/22 01:03:10;;;;;;;32.05;20.55;;;;;;;;;;5066989;28;20513;-72
2021/09/22 01:05:39;;;;;;;33.25;21.33;;;;;;;;;;5068476;28;20085;-72
2021/09/22 01:08:07;;;;;;;34.15;21.67;;;;;;;;;;5066555;28;20112;-72
2021/09/22 01:10:34;;;;;;;33.15;21.58;;;;;;;;;;5070895;28;20020;-72
2021/09/22 01:13:00;;;;;;;33.78;21.80;;;;;;;;;;5068241;28;20025;-72
2021/09/22 01:15:30;;;;;;;33.33;21.33;;;;;;;;;;5069588;28;20409;-72
2021/09/22 01:17:57;;;;;;;34.83;21.95;;;;;;;;;;5062490;28;20053;-72
2021/09/22 01:20:26;;;;;;;31.92;20.65;;;;;;;;;;5062430;28;20225;-72
2021/09/22 01:22:52;;;;;;;34.20;20.92;;;;;;;;;;5069782;28;20074;-72
2021/09/22 01:25:18;;;;;;;30.45;20.55;;;;;;;;;;5058522;28;20028;-72
2021/09/22 01:27:52;;;;;;;34.40;21.00;;;;;;;;;;5064769;28;20029;-72
2021/09/22 01:30:18;;;;;;;36.33;22.10;;;;;;;;;;5068705;28;20031;-72
2021/09/22 01:32:51;;;;;;;37.55;23.02;;;;;;;;;;5065999;28;20406;-72
2021/09/22 01:35:18;;;;;;;32.72;19.88;;;;;;;;;;5069134;28;20031;-72
2021/09/22 01:37:44;;;;;;;30.80;20.25;;;;;;;;;;5067022;28;20036;-72
2021/09/22 01:40:10;;;;;;;34.65;21.00;;;;;;;;;;5061788;28;20498;-71
2021/09/22 01:42:36;;;;;;;36.20;21.70;;;;;;;;;;5064110;28;20031;-71
2021/09/22 01:45:10;;;;;;;32.25;21.38;;;;;;;;;;5069545;28;20066;-72
2021/09/22 01:47:36;;;;;;;32.88;20.40;;;;;;;;;;5076917;28;20024;-72
2021/09/22 01:50:03;;;;;;;33.53;22.05;;;;;;;;;;5071893;28;20035;-72
2021/09/22 01:52:32;;;;;;;30.77;20.80;;;;;;;;;;5058371;28;20020;-72
2021/09/22 01:54:58;;;;;;;33.72;20.75;;;;;;;;;;5064659;28;20025;-72
2021/09/22 01:57:24;;;;;;;31.40;18.85;;;;;;;;;;5067226;28;20029;-72
2021/09/22 01:59:50;;;;;;;33.08;21.00;;;;;;;;;;5061971;28;20101;-73
2021/09/22 02:02:16;;;;;;;33.60;21.13;;;;;;;;;;5068121;28;20033;-72
2021/09/22 02:04:42;;;;;;;31.73;21.40;;;;;;;;;;5067498;28;20109;-72
2021/09/22 02:07:08;;;;;;;34.35;21.23;;;;;;;;;;5070004;28;20097;-72
2021/09/22 02:09:34;;;;;;;33.78;20.88;;;;;;;;;;5063044;28;20474;-72
2021/09/22 02:12:00;;;;;;;34.97;20.25;;;;;;;;;;5065374;28;20013;-72
2021/09/22 02:14:26;;;;;;;33.78;20.92;;;;;;;;;;5063728;28;20017;-72
2021/09/22 02:16:53;;;;;;;34.05;21.38;;;;;;;;;;5059862;28;20024;-72
2021/09/22 02:19:19;;;;;;;36.00;21.67;;;;;;;;;;5069258;28;20036;-72
2021/09/22 02:21:45;;;;;;;32.10;20.80;;;;;;;;;;5073897;28;20124;-72
2021/09/22 02:24:12;;;;;;;36.00;20.63;;;;;;;;;;5072508;28;20029;-72
2021/09/22 02:26:38;;;;;;;34.10;22.27;;;;;;;;;;5073342;28;20031;-72
2021/09/22 02:29:04;;;;;;;33.92;21.15;;;;;;;;;;5067825;28;20028;-72
2021/09/22 02:31:30;;;;;;;39.65;22.88;;;;;;;;;;5071993;28;20070;-72
2021/09/22 02:33:56;;;;;;;35.15;22.05;;;;;;;;;;5070429;28;20032;-72
2021/09/22 02:36:23;;;;;;;36.22;22.60;;;;;;;;;;5069292;28;20028;-72
2021/09/22 02:38:49;;;;;;;39.17;24.15;;;;;;;;;;5060959;28;20033;-72
2021/09/22 02:41:15;;;;;;;34.58;21.27;;;;;;;;;;5070881;28;20028;-72
2021/09/22 02:43:41;;;;;;;37.45;22.00;;;;;;;;;;5063694;28;20119;-72
2021/09/22 02:46:07;;;;;;;39.60;21.83;;;;;;;;;;5072343;28;20482;-72
2021/09/22 02:48:33;;;;;;;38.22;23.08;;;;;;;;;;5069236;28;20032;-72
2021/09/22 02:50:59;;;;;;;39.47;22.85;;;;;;;;;;5071573;28;20051;-72
2021/09/22 02:53:25;;;;;;;43.47;26.45;;;;;;;;;;5072601;28;20021;-72
2021/09/22 02:55:51;;;;;;;41.33;24.95;;;;;;;;;;5064906;28;20032;-72
2021/09/22 02:58:17;;;;;;;43.90;25.42;;;;;;;;;;5057978;28;20023;-72
2021/09/22 03:00:43;;;;;;;40.05;25.05;;;;;;;;;;5071737;28;20027;-72
2021/09/22 03:03:09;;;;;;;41.92;24.33;;;;;;;;;;5071839;28;20568;-72
2021/09/22 03:05:35;;;;;;;44.28;25.67;;;;;;;;;;5071981;28;20035;-72
2021/09/22 03:08:01;;;;;;;43.13;26.45;;;;;;;;;;5066797;28;20020;-72
2021/09/22 03:10:27;;;;;;;47.40;26.90;;;;;;;;;;5072930;28;20032;-72
2021/09/22 03:12:55;;;;;;;42.55;24.45;;;;;;;;;;5070768;28;20024;-72
2021/09/22 03:15:21;;;;;;;42.65;25.13;;;;;;;;;;5068104;28;20070;-72
2021/09/22 03:17:47;;;;;;;37.10;22.92;;;;;;;;;;5071833;28;20033;-72
2021/09/22 03:20:13;;;;;;;37.67;23.15;;;;;;;;;;5069574;28;20110;-72
2021/09/22 03:22:39;;;;;;;39.95;24.00;;;;;;;;;;5066467;28;20045;-72
2021/09/22 03:25:06;;;;;;;39.92;24.08;;;;;;;;;;5064781;28;20043;-72
2021/09/22 03:27:32;;;;;;;41.42;25.15;;;;;;;;;;5068374;28;20722;-72
2021/09/22 03:29:58;;;;;;;43.53;26.98;;;;;;;;;;5063523;28;20348;-72
2021/09/22 03:32:24;;;;;;;40.40;25.92;;;;;;;;;;5071944;28;20166;-72
2021/09/22 03:34:50;;;;;;;40.72;23.35;;;;;;;;;;5063014;28;20094;-72
2021/09/22 03:37:16;;;;;;;39.17;22.98;;;;;;;;;;5066123;28;20013;-73
2021/09/22 03:39:42;;;;;;;39.42;23.42;;;;;;;;;;5069763;28;20045;-72
2021/09/22 03:42:09;;;;;;;41.60;23.70;;;;;;;;;;5070538;28;20020;-72
2021/09/22 03:44:35;;;;;;;40.25;23.92;;;;;;;;;;5065781;28;20497;-72
2021/09/22 03:47:02;;;;;;;44.60;25.33;;;;;;;;;;5071127;28;20060;-72
2021/09/22 03:49:28;;;;;;;42.25;24.08;;;;;;;;;;5063841;28;20024;-72
2021/09/22 03:51:54;;;;;;;46.78;26.95;;;;;;;;;;5070884;28;20021;-72
2021/09/22 03:54:20;;;;;;;47.92;26.05;;;;;;;;;;5070001;28;20020;-72
2021/09/22 03:56:46;;;;;;;44.30;25.15;;;;;;;;;;5071935;28;20035;-72
2021/09/22 03:59:13;;;;;;;46.75;26.08;;;;;;;;;;5064080;28;20025;-72
2021/09/22 04:01:39;;;;;;;43.72;26.52;;;;;;;;;;5071121;28;20056;-72
2021/09/22 04:04:05;;;;;;;42.08;25.63;;;;;;;;;;5067477;28;20032;-72
2021/09/22 04:06:31;;;;;;;49.97;26.90;;;;;;;;;;5073559;28;20041;-72
2021/09/22 04:08:57;;;;;;;48.35;28.65;;;;;;;;;;5064897;28;20115;-72
2021/09/22 04:11:23;;;;;;;49.05;28.27;;;;;;;;;;5072237;28;20017;-72
2021/09/22 04:13:49;;;;;;;47.28;28.30;;;;;;;;;;5065196;28;20021;-72
2021/09/22 04:16:15;;;;;;;47.45;28.05;;;;;;;;;;5054246;28;20021;-72
2021/09/22 04:18:41;;;;;;;46.63;27.60;;;;;;;;;;5067688;28;20024;-72
2021/09/22 04:21:07;;;;;;;47.58;27.67;;;;;;;;;;5069702;28;20013;-72
2021/09/22 04:23:33;;;;;;;46.47;26.70;;;;;;;;;;5069921;28;20028;-72
2021/09/22 04:25:59;;;;;;;45.20;27.35;;;;;;;;;;5062744;28;20029;-71
2021/09/22 04:28:26;;;;;;;44.92;26.48;;;;;;;;;;5062828;28;20102;-72
2021/09/22 04:30:52;;;;;;;43.60;26.88;;;;;;;;;;5070276;28;20509;-72
2021/09/22 04:33:18;;;;;;;46.70;27.10;;;;;;;;;;5068654;28;20028;-72
2021/09/22 04:35:44;;;;;;;47.88;26.92;;;;;;;;;;5065485;28;20107;-72
2021/09/22 04:38:10;;;;;;;48.83;29.25;;;;;;;;;;5067164;28;20021;-72
2021/09/22 04:40:36;;;;;;;48.78;28.63;;;;;;;;;;5070669;28;20028;-72
2021/09/22 04:43:03;;;;;;;48.03;27.40;;;;;;;;;;5069818;28;20028;-72
2021/09/22 04:45:29;;;;;;;47.40;27.27;;;;;;;;;;5074222;28;20089;-72
2021/09/22 04:47:56;;;;;;;50.30;29.45;;;;;;;;;;5074237;28;20449;-72
2021/09/22 04:50:22;;;;;;;50.00;28.17;;;;;;;;;;5073003;28;20025;-72
2021/09/22 04:52:49;;;;;;;48.28;26.95;;;;;;;;;;5066350;28;20032;-72
2021/09/22 04:55:15;;;;;;;48.80;28.58;;;;;;;;;;5080287;28;20031;-72
2021/09/22 04:57:41;;;;;;;47.88;29.05;;;;;;;;;;5085867;28;20036;-72
2021/09/22 05:00:09;;;;;;;45.58;27.45;;;;;;;;;;5066401;28;20066;-72
2021/09/22 05:02:35;;;;;;;50.30;28.27;;;;;;;;;;5071936;28;20028;-72
2021/09/22 05:05:01;;;;;;;49.70;28.08;;;;;;;;;;5071895;28;20060;-72
2021/09/22 05:07:27;;;;;;;48.95;28.35;;;;;;;;;;5069133;28;20025;-72
2021/09/22 05:09:53;;;;;;;48.47;27.27;;;;;;;;;;5060844;28;20100;-72
2021/09/22 05:12:20;;;;;;;48.15;28.13;;;;;;;;;;5067541;28;20172;-72
2021/09/22 05:14:46;;;;;;;49.67;28.67;;;;;;;;;;5070316;28;20025;-72
2021/09/22 05:17:12;;;;;;;47.00;28.50;;;;;;;;;;5059463;28;20030;-72
2021/09/22 05:19:38;;;;;;;51.97;28.75;;;;;;;;;;5066218;28;20138;-72
2021/09/22 05:22:05;;;;;;;46.78;27.63;;;;;;;;;;5054821;28;20104;-72
2021/09/22 05:24:31;;;;;;;44.10;26.60;;;;;;;;;;5057824;28;20089;-72
2021/09/22 05:26:57;;;;;;;50.38;27.80;;;;;;;;;;5067783;28;20512;-72
2021/09/22 05:29:23;;;;;;;45.20;26.92;;;;;;;;;;5068868;28;20027;-74
2021/09/22 05:31:49;;;;;;;49.67;27.27;;;;;;;;;;5067496;28;20093;-72
2021/09/22 05:34:15;;;;;;;44.88;26.88;;;;;;;;;;5057883;28;20020;-72
2021/09/22 05:36:41;;;;;;;47.67;28.15;;;;;;;;;;5065884;28;20028;-72
2021/09/22 05:39:07;;;;;;;48.63;26.08;;;;;;;;;;5060506;28;20406;-72
2021/09/22 05:41:34;;;;;;;46.20;26.88;;;;;;;;;;5070208;28;20028;-70
2021/09/22 05:44:00;;;;;;;40.80;24.58;;;;;;;;;;5054332;28;20021;-72
2021/09/22 05:46:26;;;;;;;46.33;26.35;;;;;;;;;;5074152;28;20029;-72
2021/09/22 05:48:52;;;;;;;46.60;27.83;;;;;;;;;;5067260;28;20115;-72
2021/09/22 05:51:18;;;;;;;47.20;25.65;;;;;;;;;;5077936;28;20017;-73
2021/09/22 05:53:44;;;;;;;47.38;26.45;;;;;;;;;;5077877;28;20502;-72
2021/09/22 05:56:11;;;;;;;44.90;24.95;;;;;;;;;;5082578;28;20441;-72
2021/09/22 05:58:37;;;;;;;42.53;24.83;;;;;;;;;;5075346;28;20028;-72
2021/09/22 06:01:03;;;;;;;43.63;25.10;;;;;;;;;;5076031;28;20033;-72
2021/09/22 06:03:29;;;;;;;45.40;25.98;;;;;;;;;;5081383;28;20620;-72
2021/09/22 06:05:55;;;;;;;47.65;26.85;;;;;;;;;;5077330;28;20020;-72
2021/09/22 06:08:21;;;;;;;45.13;26.50;;;;;;;;;;5082766;28;20024;-72
2021/09/22 06:10:47;;;;;;;39.88;24.40;;;;;;;;;;5097548;28;20024;-72
2021/09/22 06:13:14;;;;;;;45.42;25.13;;;;;;;;;;5068193;28;20063;-72
2021/09/22 06:15:40;;;;;;;46.20;25.42;;;;;;;;;;5078574;28;20025;-72
2021/09/22 06:18:06;;;;;;;44.13;25.30;;;;;;;;;;5074907;28;20101;-72
2021/09/22 06:20:32;;;;;;;42.90;24.35;;;;;;;;;;5077874;28;20033;-72
2021/09/22 06:22:58;;;;;;;43.85;25.20;;;;;;;;;;5077073;28;20028;-72
2021/09/22 06:25:25;;;;;;;42.47;24.13;;;;;;;;;;5078240;28;20112;-72
2021/09/22 06:27:51;;;;;;;49.20;26.50;;;;;;;;;;5075085;28;20036;-72
2021/09/22 06:30:17;;;;;;;46.10;25.08;;;;;;;;;;5076849;28;20082;-71
2021/09/22 06:32:43;;;;;;;47.40;23.65;;;;;;;;;;5082846;28;20036;-72
2021/09/22 06:35:10;;;;;;;45.28;24.77;;;;;;;;;;5076340;28;20024;-72
2021/09/22 06:37:37;;;;;;;49.97;24.65;;;;;;;;;;5075817;28;20031;-72
2021/09/22 06:40:03;;;;;;;44.42;23.83;;;;;;;;;;5077117;28;20047;-73
2021/09/22 06:42:30;;;;;;;44.53;23.70;;;;;;;;;;5075139;28;20394;-72
2021/09/22 06:44:56;;;;;;;46.67;26.08;;;;;;;;;;5076419;28;20028;-72
2021/09/22 06:47:22;;;;;;;43.35;22.42;;;;;;;;;;5078916;28;20016;-72
2021/09/22 06:49:48;;;;;;;42.70;24.75;;;;;;;;;;5076880;28;20107;-72
2021/09/22 06:52:14;;;;;;;45.70;24.30;;;;;;;;;;5081572;28;20021;-72
2021/09/22 06:54:40;;;;;;;46.30;23.55;;;;;;;;;;5075097;28;20024;-72
2021/09/22 06:57:06;;;;;;;44.25;23.33;;;;;;;;;;5076612;28;20028;-72
2021/09/22 06:59:32;;;;;;;47.22;24.30;;;;;;;;;;5076199;28;20480;-72
2021/09/22 07:01:58;;;;;;;44.05;25.52;;;;;;;;;;5075776;28;20107;-72
2021/09/22 07:04:24;;;;;;;45.47;23.50;;;;;;;;;;5075773;28;20612;-72
2021/09/22 07:06:50;;;;;;;44.40;24.73;;;;;;;;;;5072817;28;20088;-72
2021/09/22 07:09:16;;;;;;;42.25;23.75;;;;;;;;;;5071777;28;20448;-72
2021/09/22 07:11:43;;;;;;;46.30;25.13;;;;;;;;;;5071366;28;20197;-72
2021/09/22 07:14:09;;;;;;;42.75;24.73;;;;;;;;;;5056522;28;20067;-72
2021/09/22 07:16:35;;;;;;;44.25;22.70;;;;;;;;;;5071965;28;20024;-73
2021/09/22 07:19:01;;;;;;;46.58;25.25;;;;;;;;;;5068226;28;20391;-72
2021/09/22 07:21:27;;;;;;;45.88;23.77;;;;;;;;;;5067052;28;20028;-72
2021/09/22 07:23:53;;;;;;;55.13;27.27;;;;;;;;;;5061220;28;20029;-76
2021/09/22 07:26:20;;;;;;;49.78;26.20;;;;;;;;;;5073149;28;20101;-72
2021/09/22 07:28:46;;;;;;;59.33;27.70;;;;;;;;;;5071599;28;20052;-72
2021/09/22 07:31:12;;;;;;;53.30;27.30;;;;;;;;;;5055966;28;20025;-72
2021/09/22 07:33:38;;;;;;;52.28;27.65;;;;;;;;;;5065683;28;20115;-72
2021/09/22 07:36:06;;;;;;;50.90;27.13;;;;;;;;;;5058569;28;20029;-72
2021/09/22 07:38:32;;;;;;;48.70;27.23;;;;;;;;;;5069280;28;20020;-72
2021/09/22 07:40:58;;;;;;;61.53;30.48;;;;;;;;;;5072312;28;20060;-72
2021/09/22 07:43:25;;;;;;;55.22;28.80;;;;;;;;;;5070819;28;20041;-72
2021/09/22 07:45:51;;;;;;;59.45;28.60;;;;;;;;;;5072694;28;20036;-72
2021/09/22 07:48:17;;;;;;;59.88;29.98;;;;;;;;;;5062203;28;20029;-73
2021/09/22 07:50:43;;;;;;;57.03;29.05;;;;;;;;;;5071202;28;20497;-72
2021/09/22 07:53:09;;;;;;;48.25;26.70;;;;;;;;;;5072578;28;20485;-72
2021/09/22 07:55:35;;;;;;;59.65;28.23;;;;;;;;;;5072082;28;20406;-72
2021/09/22 07:58:01;;;;;;;48.90;25.05;;;;;;;;;;5069517;28;20071;-72
2021/09/22 08:00:28;;;;;;;46.90;26.55;;;;;;;;;;5071692;28;20498;-73
2021/09/22 08:02:54;;;;;;;46.35;26.05;;;;;;;;;;5066601;28;20039;-72
2021/09/22 08:05:20;;;;;;;47.55;24.65;;;;;;;;;;5071730;28;20044;-72
2021/09/22 08:07:47;;;;;;;44.42;24.98;;;;;;;;;;5072428;28;20112;-73
2021/09/22 08:10:16;;;;;;;51.08;25.17;;;;;;;;;;5071750;28;20048;-72
2021/09/22 08:12:43;;;;;;;48.70;25.63;;;;;;;;;;5071871;28;20028;-73
2021/09/22 08:15:09;;;;;;;42.00;24.88;;;;;;;;;;5072098;28;20070;-72
2021/09/22 08:17:35;;;;;;;50.75;24.73;;;;;;;;;;5067766;28;20094;-72
2021/09/22 08:20:01;;;;;;;48.72;24.38;;;;;;;;;;5061917;28;20390;-72
2021/09/22 08:22:27;;;;;;;47.00;23.02;;;;;;;;;;5068349;28;20017;-73
2021/09/22 08:24:54;;;;;;;42.65;23.58;;;;;;;;;;5071306;28;20039;-73
2021/09/22 08:27:20;;;;;;;41.95;22.92;;;;;;;;;;5068687;28;20498;-72
2021/09/22 08:29:46;;;;;;;36.60;22.08;;;;;;;;;;5071561;28;20028;-73
2021/09/22 08:32:12;;;;;;;41.08;23.80;;;;;;;;;;5072056;28;20169;-73
2021/09/22 08:34:38;;;;;;;37.45;21.15;;;;;;;;;;5071443;28;20024;-73
2021/09/22 08:37:04;;;;;;;33.22;20.95;;;;;;;;;;5064520;28;20479;-74
2021/09/22 08:39:32;;;;;;;37.75;20.85;;;;;;;;;;5068933;28;20044;-73
2021/09/22 08:41:59;;;;;;;34.58;19.88;;;;;;;;;;5070708;28;20032;-73
2021/09/22 08:44:25;;;;;;;37.17;19.73;;;;;;;;;;5071433;28;20016;-73
2021/09/22 08:46:51;;;;;;;31.27;18.70;;;;;;;;;;5071512;28;20505;-73
2021/09/22 08:49:17;;;;;;;32.22;18.30;;;;;;;;;;5068044;28;20025;-73
2021/09/22 08:51:44;;;;;;;30.42;19.50;;;;;;;;;;5071561;28;20029;-75
2021/09/22 08:54:10;;;;;;;40.33;17.70;;;;;;;;;;5071264;28;20098;-73
2021/09/22 08:56:38;;;;;;;33.42;18.60;;;;;;;;;;5070038;28;20024;-73
2021/09/22 08:59:04;;;;;;;30.88;17.85;;;;;;;;;;5071421;28;20024;-73
2021/09/22 09:01:30;;;;;;;30.58;18.70;;;;;;;;;;5072743;28;20028;-73
2021/09/22 09:03:57;;;;;;;26.10;15.77;;;;;;;;;;5091056;28;20028;-74
2021/09/22 09:06:25;;;;;;;27.85;16.38;;;;;;;;;;5085967;28;20017;-73
2021/09/22 09:08:53;;;;;;;32.45;17.50;;;;;;;;;;5067787;28;20032;-74
2021/09/22 09:11:25;;;;;;;29.10;18.00;;;;;;;;;;5071315;28;20289;-73
2021/09/22 09:13:52;;;;;;;31.35;17.08;;;;;;;;;;5070506;28;20444;-73
2021/09/22 09:16:21;;;;;;;32.85;17.25;;;;;;;;;;5070053;28;20024;-73
2021/09/22 09:18:48;;;;;;;26.75;15.63;;;;;;;;;;5068047;28;20024;-74
2021/09/22 09:21:15;;;;;;;32.55;17.95;;;;;;;;;;5059139;28;20082;-74
2021/09/22 09:23:51;;;;;;;29.88;17.30;;;;;;;;;;5070474;28;20032;-73
2021/09/22 09:26:20;;;;;;;33.63;18.30;;;;;;;;;;5050487;28;20179;-73
2021/09/22 09:28:49;;;;;;;31.30;18.17;;;;;;;;;;5051632;28;20458;-74
2021/09/22 09:31:15;;;;;;;30.30;17.08;;;;;;;;;;5061436;28;20017;-73
2021/09/22 09:33:49;;;;;;;26.75;16.25;;;;;;;;;;5069339;28;20025;-73
2021/09/22 09:36:26;;;;;;;28.25;16.55;;;;;;;;;;5066593;28;20016;-74
2021/09/22 09:39:03;;;;;;;32.22;17.73;;;;;;;;;;5067817;28;20032;-74
2021/09/22 09:41:45;;;;;;;33.65;18.48;;;;;;;;;;5070985;28;20040;-73
2021/09/22 09:44:12;;;;;;;32.35;18.00;;;;;;;;;;5063967;28;20036;-73
2021/09/22 09:46:39;;;;;;;28.45;17.92;;;;;;;;;;5066940;28;20044;-73
2021/09/22 09:49:06;;;;;;;31.73;17.40;;;;;;;;;;5067626;28;20024;-73
2021/09/22 09:51:37;;;;;;;29.27;17.80;;;;;;;;;;5068856;28;20135;-74
2021/09/22 09:54:07;;;;;;;29.50;17.95;;;;;;;;;;5068725;28;20094;-74
2021/09/22 09:56:33;;;;;;;29.55;16.48;;;;;;;;;;5070260;28;20029;-74
2021/09/22 09:59:00;;;;;;;23.35;14.38;;;;;;;;;;5067696;28;20052;-73
2021/09/22 10:01:56;;;;;;;29.00;17.25;;;;;;;;;;5070302;28;20059;-74
2021/09/22 10:04:23;;;;;;;26.27;14.10;;;;;;;;;;5059110;28;20047;-74
2021/09/22 10:06:50;;;;;;;28.60;15.93;;;;;;;;;;5066054;28;20024;-73
2021/09/22 10:09:17;;;;;;;26.35;16.05;;;;;;;;;;5067350;28;20043;-74
2021/09/22 10:11:45;;;;;;;28.63;16.23;;;;;;;;;;5070228;28;20108;-74
2021/09/22 10:14:11;;;;;;;30.75;17.33;;;;;;;;;;5068573;28;20016;-74
2021/09/22 10:16:38;;;;;;;29.75;18.30;;;;;;;;;;5070526;28;20110;-74
2021/09/22 10:19:05;;;;;;;25.50;16.52;;;;;;;;;;5066091;28;20029;-75
2021/09/22 10:21:33;;;;;;;30.83;17.27;;;;;;;;;;5063176;28;20132;-74
2021/09/22 10:24:01;;;;;;;29.60;17.90;;;;;;;;;;5069649;28;20032;-74
2021/09/22 10:26:27;;;;;;;30.98;15.85;;;;;;;;;;5069966;28;20120;-73
2021/09/22 10:28:58;;;;;;;26.77;15.75;;;;;;;;;;5066123;28;20036;-74
2021/09/22 10:31:34;;;;;;;26.97;15.77;;;;;;;;;;5070545;28;20036;-74
2021/09/22 10:34:00;;;;;;;27.55;16.80;;;;;;;;;;5067422;28;20028;-74
2021/09/22 10:36:43;;;;;;;28.55;16.63;;;;;;;;;;5070281;28;20032;-75
2021/09/22 10:39:11;;;;;;;36.65;21.25;;;;;;;;;;5070730;28;20494;-74
2021/09/22 10:41:44;;;;;;;27.80;18.05;;;;;;;;;;5057426;28;20036;-76
2021/09/22 10:44:11;;;;;;;28.80;17.58;;;;;;;;;;5053562;28;20495;-75
2021/09/22 10:46:38;;;;;;;31.83;19.17;;;;;;;;;;5068318;28;20025;-74
2021/09/22 10:49:05;;;;;;;27.60;17.80;;;;;;;;;;5070453;28;20040;-75
2021/09/22 10:51:42;;;;;;;29.70;18.10;;;;;;;;;;5062471;28;20028;-76
2021/09/22 10:54:16;;;;;;;26.40;17.73;;;;;;;;;;5063373;28;20438;-74
2021/09/22 10:56:48;;;;;;;29.65;17.60;;;;;;;;;;5073719;28;20028;-75
2021/09/22 10:59:24;;;;;;;30.33;18.38;;;;;;;;;;5070107;28;20591;-74
2021/09/22 11:01:51;;;;;;;30.10;17.60;;;;;;;;;;5072463;28;20093;-75
2021/09/22 11:04:18;;;;;;;31.08;18.67;;;;;;;;;;5073167;28;20044;-76
2021/09/22 11:06:44;;;;;;;31.30;17.73;;;;;;;;;;5077671;28;20029;-74
2021/09/22 11:09:11;;;;;;;26.38;17.05;;;;;;;;;;5070650;28;20028;-75
2021/09/22 11:11:55;;;;;;;27.67;17.13;;;;;;;;;;5071215;28;20021;-75
2021/09/22 11:14:41;;;;;;;26.05;17.42;;;;;;;;;;5054765;28;20021;-75
2021/09/22 11:17:18;;;;;;;28.05;16.77;;;;;;;;;;5055749;28;20522;-75
2021/09/22 11:19:46;;;;;;;29.35;18.17;;;;;;;;;;5071791;28;20107;-75
2021/09/22 11:22:13;;;;;;;28.88;17.88;;;;;;;;;;5072958;28;20036;-75
2021/09/22 11:24:43;;;;;;;28.75;17.80;;;;;;;;;;5071232;28;20027;-74
2021/09/22 11:27:13;;;;;;;30.40;19.77;;;;;;;;;;5071369;28;20036;-75
2021/09/22 11:29:43;;;;;;;27.25;18.75;;;;;;;;;;5072099;28;20398;-75
2021/09/22 11:32:30;;;;;;;28.77;17.85;;;;;;;;;;5072904;28;20020;-75
2021/09/22 11:34:58;;;;;;;23.20;15.18;;;;;;;;;;5072296;28;20021;-75
2021/09/22 11:37:29;;;;;;;30.85;18.45;;;;;;;;;;5068590;28;20020;-76
2021/09/22 11:39:55;;;;;;;26.70;16.25;;;;;;;;;;5054976;28;20131;-75
2021/09/22 11:42:23;;;;;;;26.73;17.25;;;;;;;;;;5052824;28;20045;-74
2021/09/22 11:44:52;;;;;;;25.90;15.70;;;;;;;;;;5052409;28;20553;-75
2021/09/22 11:47:18;;;;;;;19.75;14.20;;;;;;;;;;5062300;28;20025;-75
2021/09/22 11:49:45;;;;;;;27.73;15.52;;;;;;;;;;5070478;28;20025;-74
2021/09/22 11:52:18;;;;;;;21.90;15.27;;;;;;;;;;5056232;28;20032;-74
2021/09/22 11:54:48;;;;;;;24.42;15.38;;;;;;;;;;5052531;28;20021;-75
2021/09/22 11:57:16;;;;;;;23.00;15.18;;;;;;;;;;5056344;28;20197;-75
2021/09/22 11:59:44;;;;;;;25.45;13.45;;;;;;;;;;5062137;28;20105;-74
2021/09/22 12:02:10;;;;;;;19.75;13.45;;;;;;;;;;5064700;28;20029;-74
2021/09/22 12:04:38;;;;;;;19.48;10.68;;;;;;;;;;5071851;28;20021;-74
2021/09/22 12:07:05;;;;;;;23.17;12.85;;;;;;;;;;5075264;28;20020;-74
2021/09/22 12:09:39;;;;;;;21.58;14.00;;;;;;;;;;5067902;28;20086;-74
2021/09/22 12:12:10;;;;;;;23.02;13.35;;;;;;;;;;5070527;28;20036;-74
2021/09/22 12:14:36;;;;;;;22.05;13.65;;;;;;;;;;5052033;28;20019;-75
2021/09/22 12:17:09;;;;;;;15.98;10.95;;;;;;;;;;5051304;28;20478;-74
2021/09/22 12:19:39;;;;;;;21.10;11.68;;;;;;;;;;5060760;28;20394;-75
2021/09/22 12:22:05;;;;;;;25.30;13.82;;;;;;;;;;5067171;28;20029;-74
2021/09/22 12:24:33;;;;;;;19.33;12.10;;;;;;;;;;5058197;28;20020;-74
2021/09/22 12:27:00;;;;;;;21.73;12.80;;;;;;;;;;5069405;28;20033;-74
2021/09/22 12:29:26;;;;;;;23.92;13.63;;;;;;;;;;5069990;28;20024;-74
2021/09/22 12:31:53;;;;;;;22.35;14.85;;;;;;;;;;5071655;28;20025;-74
2021/09/22 12:34:22;;;;;;;25.65;16.33;;;;;;;;;;5071265;28;20021;-74
2021/09/22 12:36:48;;;;;;;23.33;13.70;;;;;;;;;;5071626;28;20058;-75
2021/09/22 12:39:16;;;;;;;23.90;16.05;;;;;;;;;;5065395;28;20032;-75
2021/09/22 12:42:01;;;;;;;28.70;17.05;;;;;;;;;;5066117;28;20055;-76
2021/09/22 12:44:28;;;;;;;33.78;17.55;;;;;;;;;;5071276;28;20497;-74
2021/09/22 12:46:54;;;;;;;27.40;16.85;;;;;;;;;;5071336;28;20078;-75
2021/09/22 12:49:23;;;;;;;25.90;17.05;;;;;;;;;;5068617;28;20055;-77
2021/09/22 12:51:51;;;;;;;22.55;15.65;;;;;;;;;;5071087;28;20025;-74
2021/09/22 12:54:17;;;;;;;25.77;16.00;;;;;;;;;;5071151;28;20021;-74
2021/09/22 12:56:44;;;;;;;26.67;16.50;;;;;;;;;;5070436;28;20016;-73
2021/09/22 12:59:29;;;;;;;28.20;16.05;;;;;;;;;;5068080;28;20032;-74
2021/09/22 13:01:57;;;;;;;27.63;17.95;;;;;;;;;;5071006;28;20034;-73
2021/09/22 13:04:27;;;;;;;27.70;17.38;;;;;;;;;;5052812;28;20057;-73
2021/09/22 13:06:54;;;;;;;23.63;15.52;;;;;;;;;;5060361;28;20035;-74
2021/09/22 13:09:33;;;;;;;26.33;15.90;;;;;;;;;;5065656;28;20162;-74
2021/09/22 13:11:59;;;;;;;23.05;14.63;;;;;;;;;;5067697;28;20016;-75
2021/09/22 13:14:26;;;;;;;24.70;16.30;;;;;;;;;;5070492;28;20017;-74
2021/09/22 13:16:56;;;;;;;23.02;15.43;;;;;;;;;;5070911;28;20105;-73
2021/09/22 13:19:32;;;;;;;31.08;16.35;;;;;;;;;;5069137;28;20416;-73
2021/09/22 13:21:59;;;;;;;28.98;17.45;;;;;;;;;;5050548;28;20489;-74
2021/09/22 13:24:26;;;;;;;24.05;16.88;;;;;;;;;;5050918;28;20395;-73
2021/09/22 13:26:54;;;;;;;25.50;18.58;;;;;;;;;;5062214;28;20493;-73
2021/09/22 13:29:20;;;;;;;24.73;14.95;;;;;;;;;;5067622;28;20036;-74
2021/09/22 13:31:48;;;;;;;25.55;16.00;;;;;;;;;;5070133;28;20482;-74
2021/09/22 13:34:15;;;;;;;24.63;16.20;;;;;;;;;;5068501;28;20016;-74
2021/09/22 13:36:41;;;;;;;27.92;16.55;;;;;;;;;;5069154;28;21412;-74
2021/09/22 13:39:08;;;;;;;33.20;17.98;;;;;;;;;;5066543;28;20020;-73
2021/09/22 13:41:35;;;;;;;27.77;17.92;;;;;;;;;;5069360;28;20173;-73
2021/09/22 13:44:04;;;;;;;31.38;19.52;;;;;;;;;;5067317;28;20028;-74
2021/09/22 13:46:30;;;;;;;33.17;18.27;;;;;;;;;;5069718;28;20023;-72
2021/09/22 13:48:56;;;;;;;29.90;19.70;;;;;;;;;;5066058;28;20035;-74
2021/09/22 13:51:22;;;;;;;32.08;19.73;;;;;;;;;;5069771;28;20481;-75
2021/09/22 13:53:49;;;;;;;31.35;17.75;;;;;;;;;;5068588;28;20039;-74
2021/09/22 13:56:15;;;;;;;28.50;19.17;;;;;;;;;;5068994;28;20017;-72
2021/09/22 13:58:42;;;;;;;30.85;19.85;;;;;;;;;;5066959;28;20486;-71
2021/09/22 14:01:08;;;;;;;29.20;20.88;;;;;;;;;;5067211;28;20013;-72
2021/09/22 14:03:34;;;;;;;32.97;20.10;;;;;;;;;;5069354;28;20028;-72
2021/09/22 14:06:00;;;;;;;31.40;20.67;;;;;;;;;;5070073;28;20023;-72
2021/09/22 14:08:28;;;;;;;31.73;21.75;;;;;;;;;;5066368;28;20024;-71
2021/09/22 14:10:54;;;;;;;29.25;20.25;;;;;;;;;;5070204;28;20039;-70
2021/09/22 14:13:20;;;;;;;32.63;22.08;;;;;;;;;;5074243;28;20032;-75
2021/09/22 14:15:47;;;;;;;33.83;21.30;;;;;;;;;;5069969;28;20016;-73
2021/09/22 14:18:14;;;;;;;32.53;20.00;;;;;;;;;;5069244;28;20107;-74